sensor_id;sensor_type;location;lat;lon;timestamp;temperature;humidity
20973;DHT22;10645;52.370;13.314;2022-07-19T00:02:07;13.90;99.90
20973;DHT22;10645;52.370;13.314;2022-07-19T00:04:34;13.90;99.90
20973;DHT22;10645;52.370;13.314;2022-07-19T00:07:00;13.90;99.90
20973;DHT22;10645;52.370;13.314;2022-07-19T00:09:27;13.90;99.90
20973;DHT22;10645;52.370;13.314;2022-07-19T00:11:53;13.90;99.90
20973;DHT22;10645;52.370;13.314;2022-07-19T00:14:20;13.80;99.90
20973;DHT22;10645;52.370;13.314;2022-07-19T00:16:47;13.80;99.90
20973;DHT22;10645;52.370;13.314;2022-07-19T00:19:13;13.80;99.90
20973;DHT22;10645;52.370;13.314;2022-07-19T00:21:39;13.70;99.90
20973;DHT22;10645;52.370;13.314;2022-07-19T00:24:05;13.70;99.90
20973;DHT22;10645;52.370;13.314;2022-07-19T00:26:31;13.60;99.90
20973;DHT22;10645;52.370;13.314;2022-07-19T00:28:59;13.60;99.90
20973;DHT22;10645;52.370;13.314;2022-07-19T00:31:26;13.60;99.90
20973;DHT22;10645;52.370;13.314;2022-07-19T00:33:53;13.50;99.90
20973;DHT22;10645;52.370;13.314;2022-07-19T00:36:19;13.50;99.90
20973;DHT22;10645;52.370;13.314;2022-07-19T00:38:46;13.40;99.90
20973;DHT22;10645;52.370;13.314;2022-07-19T00:41:12;13.40;99.90
20973;DHT22;10645;52.370;13.314;2022-07-19T00:43:42;13.40;99.90
20973;DHT22;10645;52.370;13.314;2022-07-19T00:48:39;13.30;99.90
20973;DHT22;10645;52.370;13.314;2022-07-19T00:51:07;13.30;99.90
20973;DHT22;10645;52.370;13.314;2022-07-19T00:53:36;13.30;99.90
20973;DHT22;10645;52.370;13.314;2022-07-19T00:56:07;13.30;99.90
20973;DHT22;10645;52.370;13.314;2022-07-19T00:58:35;13.30;99.90
20973;DHT22;10645;52.370;13.314;2022-07-19T01:01:03;13.30;99.90
20973;DHT22;10645;52.370;13.314;2022-07-19T01:03:30;13.30;99.90
20973;DHT22;10645;52.370;13.314;2022-07-19T01:05:56;13.30;99.90
20973;DHT22;10645;52.370;13.314;2022-07-19T01:08:22;13.20;99.90
20973;DHT22;10645;52.370;13.314;2022-07-19T01:10:49;13.20;99.90
20973;DHT22;10645;52.370;13.314;2022-07-19T01:13:15;13.20;99.90
20973;DHT22;10645;52.370;13.314;2022-07-19T01:15:42;13.20;99.90
20973;DHT22;10645;52.370;13.314;2022-07-19T01:18:09;13.20;99.90
20973;DHT22;10645;52.370;13.314;2022-07-19T01:20:35;13.10;99.90
20973;DHT22;10645;52.370;13.314;2022-07-19T01:23:02;13.20;99.90
20973;DHT22;10645;52.370;13.314;2022-07-19T01:25:33;13.10;99.90
20973;DHT22;10645;52.370;13.314;2022-07-19T01:28:00;13.10;99.90
20973;DHT22;10645;52.370;13.314;2022-07-19T01:30:27;13.00;99.90
20973;DHT22;10645;52.370;13.314;2022-07-19T01:32:54;13.00;99.90
20973;DHT22;10645;52.370;13.314;2022-07-19T01:35:21;13.00;99.90
20973;DHT22;10645;52.370;13.314;2022-07-19T01:37:47;12.90;99.90
20973;DHT22;10645;52.370;13.314;2022-07-19T01:40:15;12.90;99.90
20973;DHT22;10645;52.370;13.314;2022-07-19T01:42:43;12.90;99.90
20973;DHT22;10645;52.370;13.314;2022-07-19T01:45:10;12.80;99.90
20973;DHT22;10645;52.370;13.314;2022-07-19T01:47:37;12.80;99.90
20973;DHT22;10645;52.370;13.314;2022-07-19T01:50:05;12.80;99.90
20973;DHT22;10645;52.370;13.314;2022-07-19T01:52:31;12.80;99.90
20973;DHT22;10645;52.370;13.314;2022-07-19T01:54:57;12.80;99.90
20973;DHT22;10645;52.370;13.314;2022-07-19T01:57:23;12.80;99.90
20973;DHT22;10645;52.370;13.314;2022-07-19T01:59:50;12.70;99.90
20973;DHT22;10645;52.370;13.314;2022-07-19T02:02:16;12.70;99.90
20973;DHT22;10645;52.370;13.314;2022-07-19T02:04:42;12.60;99.90
20973;DHT22;10645;52.370;13.314;2022-07-19T02:07:08;12.60;99.90
20973;DHT22;10645;52.370;13.314;2022-07-19T02:09:34;12.60;99.90
20973;DHT22;10645;52.370;13.314;2022-07-19T02:12:00;12.60;99.90
20973;DHT22;10645;52.370;13.314;2022-07-19T02:14:26;12.50;99.90
20973;DHT22;10645;52.370;13.314;2022-07-19T02:16:52;12.50;99.90
20973;DHT22;10645;52.370;13.314;2022-07-19T02:19:18;12.50;99.90
20973;DHT22;10645;52.370;13.314;2022-07-19T02:21:44;12.50;99.90
20973;DHT22;10645;52.370;13.314;2022-07-19T02:24:10;12.40;99.90
20973;DHT22;10645;52.370;13.314;2022-07-19T02:26:37;12.40;99.90
20973;DHT22;10645;52.370;13.314;2022-07-19T02:29:03;12.30;99.90
20973;DHT22;10645;52.370;13.314;2022-07-19T02:31:29;12.20;99.90
20973;DHT22;10645;52.370;13.314;2022-07-19T02:33:55;12.20;99.90
20973;DHT22;10645;52.370;13.314;2022-07-19T02:36:21;12.20;99.90
20973;DHT22;10645;52.370;13.314;2022-07-19T02:38:48;12.20;99.90
20973;DHT22;10645;52.370;13.314;2022-07-19T02:41:14;12.10;99.90
20973;DHT22;10645;52.370;13.314;2022-07-19T02:43:40;12.10;99.90
20973;DHT22;10645;52.370;13.314;2022-07-19T02:46:06;12.10;99.90
20973;DHT22;10645;52.370;13.314;2022-07-19T02:48:32;12.00;99.90
20973;DHT22;10645;52.370;13.314;2022-07-19T02:50:58;12.00;99.90
20973;DHT22;10645;52.370;13.314;2022-07-19T02:53:24;12.00;99.90
20973;DHT22;10645;52.370;13.314;2022-07-19T02:55:50;12.00;99.90
20973;DHT22;10645;52.370;13.314;2022-07-19T02:58:16;12.00;99.90
20973;DHT22;10645;52.370;13.314;2022-07-19T03:00:43;12.00;99.90
20973;DHT22;10645;52.370;13.314;2022-07-19T03:03:09;12.00;99.90
20973;DHT22;10645;52.370;13.314;2022-07-19T03:05:55;11.90;99.90
20973;DHT22;10645;52.370;13.314;2022-07-19T03:08:21;11.90;99.90
20973;DHT22;10645;52.370;13.314;2022-07-19T03:10:47;11.90;99.90
20973;DHT22;10645;52.370;13.314;2022-07-19T03:13:13;11.90;99.90
20973;DHT22;10645;52.370;13.314;2022-07-19T03:15:39;11.80;99.90
20973;DHT22;10645;52.370;13.314;2022-07-19T03:18:06;11.80;99.90
20973;DHT22;10645;52.370;13.314;2022-07-19T03:20:32;11.80;99.90
20973;DHT22;10645;52.370;13.314;2022-07-19T03:22:58;11.80;99.90
20973;DHT22;10645;52.370;13.314;2022-07-19T03:25:24;11.80;99.90
20973;DHT22;10645;52.370;13.314;2022-07-19T03:27:53;11.80;99.90
20973;DHT22;10645;52.370;13.314;2022-07-19T03:30:19;11.80;99.90
20973;DHT22;10645;52.370;13.314;2022-07-19T03:32:45;11.80;99.90
20973;DHT22;10645;52.370;13.314;2022-07-19T03:35:11;11.80;99.90
20973;DHT22;10645;52.370;13.314;2022-07-19T03:37:37;11.80;99.90
20973;DHT22;10645;52.370;13.314;2022-07-19T03:40:05;11.80;99.90
20973;DHT22;10645;52.370;13.314;2022-07-19T03:42:31;11.90;99.90
20973;DHT22;10645;52.370;13.314;2022-07-19T03:44:57;11.90;99.90
20973;DHT22;10645;52.370;13.314;2022-07-19T03:47:24;11.90;99.90
20973;DHT22;10645;52.370;13.314;2022-07-19T03:49:50;11.90;99.90
20973;DHT22;10645;52.370;13.314;2022-07-19T03:52:16;12.00;99.90
20973;DHT22;10645;52.370;13.314;2022-07-19T03:54:42;12.00;99.90
20973;DHT22;10645;52.370;13.314;2022-07-19T03:57:08;12.10;99.90
20973;DHT22;10645;52.370;13.314;2022-07-19T03:59:35;12.10;99.90
20973;DHT22;10645;52.370;13.314;2022-07-19T04:02:01;12.20;99.90
20973;DHT22;10645;52.370;13.314;2022-07-19T04:04:27;12.20;99.90
20973;DHT22;10645;52.370;13.314;2022-07-19T04:06:53;12.20;99.90
20973;DHT22;10645;52.370;13.314;2022-07-19T04:09:19;12.30;99.90
20973;DHT22;10645;52.370;13.314;2022-07-19T04:11:45;12.30;99.90
20973;DHT22;10645;52.370;13.314;2022-07-19T04:14:11;12.40;99.90
20973;DHT22;10645;52.370;13.314;2022-07-19T04:16:37;12.40;99.90
20973;DHT22;10645;52.370;13.314;2022-07-19T04:19:03;12.50;99.90
20973;DHT22;10645;52.370;13.314;2022-07-19T04:21:29;12.60;99.90
20973;DHT22;10645;52.370;13.314;2022-07-19T04:23:55;12.60;99.90
20973;DHT22;10645;52.370;13.314;2022-07-19T04:26:21;12.80;99.90
20973;DHT22;10645;52.370;13.314;2022-07-19T04:28:48;12.80;99.90
20973;DHT22;10645;52.370;13.314;2022-07-19T04:31:14;12.90;99.90
20973;DHT22;10645;52.370;13.314;2022-07-19T04:33:40;13.10;99.90
20973;DHT22;10645;52.370;13.314;2022-07-19T04:36:06;13.20;99.90
20973;DHT22;10645;52.370;13.314;2022-07-19T04:38:33;13.30;99.90
20973;DHT22;10645;52.370;13.314;2022-07-19T04:40:59;13.40;99.90
20973;DHT22;10645;52.370;13.314;2022-07-19T04:43:25;13.60;99.90
20973;DHT22;10645;52.370;13.314;2022-07-19T04:45:51;13.70;99.90
20973;DHT22;10645;52.370;13.314;2022-07-19T04:48:17;13.90;99.90
20973;DHT22;10645;52.370;13.314;2022-07-19T04:50:43;14.00;99.90
20973;DHT22;10645;52.370;13.314;2022-07-19T04:53:09;14.10;99.90
20973;DHT22;10645;52.370;13.314;2022-07-19T04:55:38;14.40;99.90
20973;DHT22;10645;52.370;13.314;2022-07-19T04:58:04;14.60;99.90
20973;DHT22;10645;52.370;13.314;2022-07-19T05:00:30;14.80;99.90
20973;DHT22;10645;52.370;13.314;2022-07-19T05:02:56;15.00;99.90
20973;DHT22;10645;52.370;13.314;2022-07-19T05:05:23;15.20;99.90
20973;DHT22;10645;52.370;13.314;2022-07-19T05:07:49;15.50;99.90
20973;DHT22;10645;52.370;13.314;2022-07-19T05:10:16;15.70;99.90
20973;DHT22;10645;52.370;13.314;2022-07-19T05:12:42;15.90;99.90
20973;DHT22;10645;52.370;13.314;2022-07-19T05:15:08;16.20;99.90
20973;DHT22;10645;52.370;13.314;2022-07-19T05:17:34;16.40;99.90
20973;DHT22;10645;52.370;13.314;2022-07-19T05:20:01;16.60;99.90
20973;DHT22;10645;52.370;13.314;2022-07-19T05:22:27;16.70;99.90
20973;DHT22;10645;52.370;13.314;2022-07-19T05:24:53;16.90;99.90
20973;DHT22;10645;52.370;13.314;2022-07-19T05:27:20;17.20;99.90
20973;DHT22;10645;52.370;13.314;2022-07-19T05:29:46;17.60;99.90
20973;DHT22;10645;52.370;13.314;2022-07-19T05:32:12;17.90;99.90
20973;DHT22;10645;52.370;13.314;2022-07-19T05:34:38;18.00;99.90
20973;DHT22;10645;52.370;13.314;2022-07-19T05:37:05;18.20;99.90
20973;DHT22;10645;52.370;13.314;2022-07-19T05:39:31;18.40;99.90
20973;DHT22;10645;52.370;13.314;2022-07-19T05:41:57;18.50;99.90
20973;DHT22;10645;52.370;13.314;2022-07-19T05:44:23;18.60;99.90
20973;DHT22;10645;52.370;13.314;2022-07-19T05:46:49;18.80;99.90
20973;DHT22;10645;52.370;13.314;2022-07-19T05:49:15;18.90;99.90
20973;DHT22;10645;52.370;13.314;2022-07-19T05:51:41;19.20;99.90
20973;DHT22;10645;52.370;13.314;2022-07-19T05:54:08;19.40;99.90
20973;DHT22;10645;52.370;13.314;2022-07-19T05:56:34;19.50;99.90
20973;DHT22;10645;52.370;13.314;2022-07-19T05:59:00;19.60;99.90
20973;DHT22;10645;52.370;13.314;2022-07-19T06:01:27;19.80;99.90
20973;DHT22;10645;52.370;13.314;2022-07-19T06:03:57;19.90;99.90
20973;DHT22;10645;52.370;13.314;2022-07-19T06:06:24;20.00;99.90
20973;DHT22;10645;52.370;13.314;2022-07-19T06:08:52;20.20;99.90
20973;DHT22;10645;52.370;13.314;2022-07-19T06:11:18;20.30;99.90
20973;DHT22;10645;52.370;13.314;2022-07-19T06:13:46;20.50;99.90
20973;DHT22;10645;52.370;13.314;2022-07-19T06:16:12;20.70;99.90
20973;DHT22;10645;52.370;13.314;2022-07-19T06:18:39;20.90;99.90
20973;DHT22;10645;52.370;13.314;2022-07-19T06:21:08;21.00;99.90
20973;DHT22;10645;52.370;13.314;2022-07-19T06:23:34;21.30;99.90
20973;DHT22;10645;52.370;13.314;2022-07-19T06:26:01;21.40;99.40
20973;DHT22;10645;52.370;13.314;2022-07-19T06:28:27;21.60;99.30
20973;DHT22;10645;52.370;13.314;2022-07-19T06:30:53;21.80;99.30
20973;DHT22;10645;52.370;13.314;2022-07-19T06:33:19;22.00;98.40
20973;DHT22;10645;52.370;13.314;2022-07-19T06:35:45;22.20;98.50
20973;DHT22;10645;52.370;13.314;2022-07-19T06:38:12;22.40;97.00
20973;DHT22;10645;52.370;13.314;2022-07-19T06:40:38;22.70;95.60
20973;DHT22;10645;52.370;13.314;2022-07-19T06:43:04;22.80;95.40
20973;DHT22;10645;52.370;13.314;2022-07-19T06:45:30;23.00;95.70
20973;DHT22;10645;52.370;13.314;2022-07-19T06:47:57;23.20;95.20
20973;DHT22;10645;52.370;13.314;2022-07-19T06:50:23;23.50;94.70
20973;DHT22;10645;52.370;13.314;2022-07-19T06:52:49;23.70;94.50
20973;DHT22;10645;52.370;13.314;2022-07-19T06:55:15;23.80;92.60
20973;DHT22;10645;52.370;13.314;2022-07-19T06:57:42;24.10;92.60
20973;DHT22;10645;52.370;13.314;2022-07-19T07:00:09;24.20;92.30
20973;DHT22;10645;52.370;13.314;2022-07-19T07:02:36;24.40;91.20
20973;DHT22;10645;52.370;13.314;2022-07-19T07:05:03;24.60;90.90
20973;DHT22;10645;52.370;13.314;2022-07-19T07:07:29;24.80;88.60
20973;DHT22;10645;52.370;13.314;2022-07-19T07:09:55;24.90;87.40
20973;DHT22;10645;52.370;13.314;2022-07-19T07:12:21;25.00;84.70
20973;DHT22;10645;52.370;13.314;2022-07-19T07:14:47;25.20;88.20
20973;DHT22;10645;52.370;13.314;2022-07-19T07:17:14;25.30;86.80
20973;DHT22;10645;52.370;13.314;2022-07-19T07:19:40;25.40;84.20
20973;DHT22;10645;52.370;13.314;2022-07-19T07:22:06;25.60;85.60
20973;DHT22;10645;52.370;13.314;2022-07-19T07:24:32;25.70;85.40
20973;DHT22;10645;52.370;13.314;2022-07-19T07:26:58;25.90;81.70
20973;DHT22;10645;52.370;13.314;2022-07-19T07:29:24;26.10;82.80
20973;DHT22;10645;52.370;13.314;2022-07-19T07:31:50;26.10;82.40
20973;DHT22;10645;52.370;13.314;2022-07-19T07:34:17;26.30;83.00
20973;DHT22;10645;52.370;13.314;2022-07-19T07:36:43;26.40;81.20
20973;DHT22;10645;52.370;13.314;2022-07-19T07:39:11;26.50;78.40
20973;DHT22;10645;52.370;13.314;2022-07-19T07:41:37;26.60;77.60
20973;DHT22;10645;52.370;13.314;2022-07-19T07:44:03;26.70;77.90
20973;DHT22;10645;52.370;13.314;2022-07-19T07:46:30;26.90;77.90
20973;DHT22;10645;52.370;13.314;2022-07-19T07:48:56;27.10;77.90
20973;DHT22;10645;52.370;13.314;2022-07-19T07:51:22;27.20;74.80
20973;DHT22;10645;52.370;13.314;2022-07-19T07:53:48;27.30;79.70
20973;DHT22;10645;52.370;13.314;2022-07-19T07:56:15;27.60;77.70
20973;DHT22;10645;52.370;13.314;2022-07-19T07:58:41;27.70;78.80
20973;DHT22;10645;52.370;13.314;2022-07-19T08:01:07;27.90;78.10
20973;DHT22;10645;52.370;13.314;2022-07-19T08:03:33;27.90;76.10
20973;DHT22;10645;52.370;13.314;2022-07-19T08:05:59;28.00;74.50
20973;DHT22;10645;52.370;13.314;2022-07-19T08:08:25;28.20;76.20
20973;DHT22;10645;52.370;13.314;2022-07-19T08:10:53;28.40;74.10
20973;DHT22;10645;52.370;13.314;2022-07-19T08:13:20;28.50;74.60
20973;DHT22;10645;52.370;13.314;2022-07-19T08:15:46;28.60;73.00
20973;DHT22;10645;52.370;13.314;2022-07-19T08:18:12;28.80;72.30
20973;DHT22;10645;52.370;13.314;2022-07-19T08:20:38;28.80;73.80
20973;DHT22;10645;52.370;13.314;2022-07-19T08:23:04;29.10;72.90
20973;DHT22;10645;52.370;13.314;2022-07-19T08:25:30;29.20;71.70
20973;DHT22;10645;52.370;13.314;2022-07-19T08:27:58;29.30;70.80
20973;DHT22;10645;52.370;13.314;2022-07-19T08:30:24;29.30;68.30
20973;DHT22;10645;52.370;13.314;2022-07-19T08:32:50;29.50;69.70
20973;DHT22;10645;52.370;13.314;2022-07-19T08:35:16;29.70;70.10
20973;DHT22;10645;52.370;13.314;2022-07-19T08:37:42;29.80;71.00
20973;DHT22;10645;52.370;13.314;2022-07-19T08:40:09;30.00;69.60
20973;DHT22;10645;52.370;13.314;2022-07-19T08:42:35;30.30;68.90
20973;DHT22;10645;52.370;13.314;2022-07-19T08:45:04;30.50;65.70
20973;DHT22;10645;52.370;13.314;2022-07-19T08:47:31;30.60;71.60
20973;DHT22;10645;52.370;13.314;2022-07-19T08:50:06;30.60;66.50
20973;DHT22;10645;52.370;13.314;2022-07-19T08:52:34;30.80;66.70
20973;DHT22;10645;52.370;13.314;2022-07-19T08:55:00;30.90;65.30
20973;DHT22;10645;52.370;13.314;2022-07-19T08:57:27;30.80;63.50
20973;DHT22;10645;52.370;13.314;2022-07-19T09:00:12;30.80;64.10
20973;DHT22;10645;52.370;13.314;2022-07-19T09:02:39;30.90;64.00
20973;DHT22;10645;52.370;13.314;2022-07-19T09:05:07;31.20;64.30
20973;DHT22;10645;52.370;13.314;2022-07-19T09:07:38;31.10;62.50
20973;DHT22;10645;52.370;13.314;2022-07-19T09:10:18;31.30;63.40
20973;DHT22;10645;52.370;13.314;2022-07-19T09:15:55;31.60;63.20
20973;DHT22;10645;52.370;13.314;2022-07-19T09:18:26;31.70;62.30
20973;DHT22;10645;52.370;13.314;2022-07-19T09:21:03;31.90;62.50
20973;DHT22;10645;52.370;13.314;2022-07-19T09:23:30;32.10;60.10
20973;DHT22;10645;52.370;13.314;2022-07-19T09:25:59;32.10;62.70
20973;DHT22;10645;52.370;13.314;2022-07-19T09:28:27;31.80;58.50
20973;DHT22;10645;52.370;13.314;2022-07-19T09:30:57;32.10;58.10
20973;DHT22;10645;52.370;13.314;2022-07-19T09:33:25;32.30;59.60
20973;DHT22;10645;52.370;13.314;2022-07-19T09:35:54;32.50;61.20
20973;DHT22;10645;52.370;13.314;2022-07-19T09:38:26;32.50;58.40
20973;DHT22;10645;52.370;13.314;2022-07-19T09:41:12;32.80;59.20
20973;DHT22;10645;52.370;13.314;2022-07-19T09:43:59;32.90;58.20
20973;DHT22;10645;52.370;13.314;2022-07-19T09:46:33;33.10;58.70
20973;DHT22;10645;52.370;13.314;2022-07-19T09:49:09;33.10;54.70
20973;DHT22;10645;52.370;13.314;2022-07-19T09:51:37;32.90;57.00
20973;DHT22;10645;52.370;13.314;2022-07-19T09:54:05;32.80;56.00
20973;DHT22;10645;52.370;13.314;2022-07-19T09:56:32;33.00;56.80
20973;DHT22;10645;52.370;13.314;2022-07-19T09:58:58;33.00;55.10
20973;DHT22;10645;52.370;13.314;2022-07-19T10:01:26;33.00;55.50
20973;DHT22;10645;52.370;13.314;2022-07-19T10:03:55;33.10;55.90
20973;DHT22;10645;52.370;13.314;2022-07-19T10:06:22;32.90;54.50
20973;DHT22;10645;52.370;13.314;2022-07-19T10:08:50;32.90;54.40
20973;DHT22;10645;52.370;13.314;2022-07-19T10:11:16;33.10;56.20
20973;DHT22;10645;52.370;13.314;2022-07-19T10:13:43;33.00;55.40
20973;DHT22;10645;52.370;13.314;2022-07-19T10:16:13;32.90;53.80
20973;DHT22;10645;52.370;13.314;2022-07-19T10:18:57;33.30;54.20
20973;DHT22;10645;52.370;13.314;2022-07-19T10:21:24;33.40;54.80
20973;DHT22;10645;52.370;13.314;2022-07-19T10:23:51;33.40;53.60
20973;DHT22;10645;52.370;13.314;2022-07-19T10:26:37;33.30;54.30
20973;DHT22;10645;52.370;13.314;2022-07-19T10:29:12;33.00;53.10
20973;DHT22;10645;52.370;13.314;2022-07-19T10:31:38;33.20;55.10
20973;DHT22;10645;52.370;13.314;2022-07-19T10:34:10;33.30;56.30
20973;DHT22;10645;52.370;13.314;2022-07-19T10:36:45;33.60;53.30
20973;DHT22;10645;52.370;13.314;2022-07-19T10:39:19;33.70;53.60
20973;DHT22;10645;52.370;13.314;2022-07-19T10:50:23;33.90;52.40
20973;DHT22;10645;52.370;13.314;2022-07-19T10:52:52;33.90;53.00
20973;DHT22;10645;52.370;13.314;2022-07-19T11:02:53;34.60;52.50
20973;DHT22;10645;52.370;13.314;2022-07-19T11:05:47;34.70;51.40
20973;DHT22;10645;52.370;13.314;2022-07-19T11:08:14;34.60;50.70
20973;DHT22;10645;52.370;13.314;2022-07-19T11:10:41;34.50;49.60
20973;DHT22;10645;52.370;13.314;2022-07-19T11:13:07;34.20;50.60
20973;DHT22;10645;52.370;13.314;2022-07-19T11:15:34;34.30;51.30
20973;DHT22;10645;52.370;13.314;2022-07-19T11:18:04;34.60;51.20
20973;DHT22;10645;52.370;13.314;2022-07-19T11:20:36;34.40;50.30
20973;DHT22;10645;52.370;13.314;2022-07-19T11:23:04;34.60;51.70
20973;DHT22;10645;52.370;13.314;2022-07-19T11:25:33;34.50;49.80
20973;DHT22;10645;52.370;13.314;2022-07-19T11:28:00;34.90;52.00
20973;DHT22;10645;52.370;13.314;2022-07-19T11:30:32;35.00;50.50
20973;DHT22;10645;52.370;13.314;2022-07-19T11:33:01;34.80;50.10
20973;DHT22;10645;52.370;13.314;2022-07-19T11:35:27;34.70;50.90
20973;DHT22;10645;52.370;13.314;2022-07-19T11:37:55;35.00;51.40
20973;DHT22;10645;52.370;13.314;2022-07-19T11:40:23;35.00;48.60
20973;DHT22;10645;52.370;13.314;2022-07-19T11:42:50;35.40;49.90
20973;DHT22;10645;52.370;13.314;2022-07-19T11:45:22;35.60;49.20
20973;DHT22;10645;52.370;13.314;2022-07-19T11:47:52;35.50;48.60
20973;DHT22;10645;52.370;13.314;2022-07-19T11:50:21;35.90;49.50
20973;DHT22;10645;52.370;13.314;2022-07-19T11:52:57;36.00;49.40
20973;DHT22;10645;52.370;13.314;2022-07-19T11:55:26;36.00;48.20
20973;DHT22;10645;52.370;13.314;2022-07-19T11:57:54;35.70;48.80
20973;DHT22;10645;52.370;13.314;2022-07-19T12:00:21;35.70;50.50
20973;DHT22;10645;52.370;13.314;2022-07-19T12:05:23;35.80;49.20
20973;DHT22;10645;52.370;13.314;2022-07-19T12:07:50;35.40;48.50
20973;DHT22;10645;52.370;13.314;2022-07-19T12:10:35;35.40;49.40
20973;DHT22;10645;52.370;13.314;2022-07-19T12:13:03;35.60;48.70
20973;DHT22;10645;52.370;13.314;2022-07-19T12:15:53;35.70;49.90
20973;DHT22;10645;52.370;13.314;2022-07-19T12:18:21;35.80;48.50
20973;DHT22;10645;52.370;13.314;2022-07-19T12:21:14;35.80;47.90
20973;DHT22;10645;52.370;13.314;2022-07-19T12:23:40;35.70;48.10
20973;DHT22;10645;52.370;13.314;2022-07-19T12:26:07;35.90;47.60
20973;DHT22;10645;52.370;13.314;2022-07-19T12:28:33;36.10;48.20
20973;DHT22;10645;52.370;13.314;2022-07-19T12:31:03;36.10;47.80
20973;DHT22;10645;52.370;13.314;2022-07-19T12:33:29;36.10;47.70
20973;DHT22;10645;52.370;13.314;2022-07-19T12:35:56;36.10;46.20
20973;DHT22;10645;52.370;13.314;2022-07-19T12:38:31;36.30;46.60
20973;DHT22;10645;52.370;13.314;2022-07-19T12:41:05;36.40;47.60
20973;DHT22;10645;52.370;13.314;2022-07-19T12:43:32;36.90;47.40
20973;DHT22;10645;52.370;13.314;2022-07-19T12:45:59;37.10;46.80
20973;DHT22;10645;52.370;13.314;2022-07-19T12:48:27;37.00;45.10
20973;DHT22;10645;52.370;13.314;2022-07-19T12:50:54;37.20;47.50
20973;DHT22;10645;52.370;13.314;2022-07-19T12:53:20;37.30;45.10
20973;DHT22;10645;52.370;13.314;2022-07-19T12:55:48;37.00;45.80
20973;DHT22;10645;52.370;13.314;2022-07-19T12:58:16;36.90;44.60
20973;DHT22;10645;52.370;13.314;2022-07-19T13:01:02;37.00;44.80
20973;DHT22;10645;52.370;13.314;2022-07-19T13:03:28;37.20;45.00
20973;DHT22;10645;52.370;13.314;2022-07-19T13:05:54;36.90;42.80
20973;DHT22;10645;52.370;13.314;2022-07-19T13:08:20;36.60;43.70
20973;DHT22;10645;52.370;13.314;2022-07-19T13:10:47;36.70;44.50
20973;DHT22;10645;52.370;13.314;2022-07-19T13:13:13;37.00;43.70
20973;DHT22;10645;52.370;13.314;2022-07-19T13:15:39;36.70;43.50
20973;DHT22;10645;52.370;13.314;2022-07-19T13:18:05;37.10;45.30
20973;DHT22;10645;52.370;13.314;2022-07-19T13:20:31;37.30;43.60
20973;DHT22;10645;52.370;13.314;2022-07-19T13:22:57;37.10;44.20
20973;DHT22;10645;52.370;13.314;2022-07-19T13:25:23;36.90;43.40
20973;DHT22;10645;52.370;13.314;2022-07-19T13:27:49;36.80;44.10
20973;DHT22;10645;52.370;13.314;2022-07-19T13:30:15;36.80;43.30
20973;DHT22;10645;52.370;13.314;2022-07-19T13:32:41;37.00;45.20
20973;DHT22;10645;52.370;13.314;2022-07-19T13:35:08;37.10;43.70
20973;DHT22;10645;52.370;13.314;2022-07-19T13:37:34;36.80;44.00
20973;DHT22;10645;52.370;13.314;2022-07-19T13:40:00;36.70;43.40
20973;DHT22;10645;52.370;13.314;2022-07-19T13:42:26;36.60;43.60
20973;DHT22;10645;52.370;13.314;2022-07-19T13:44:53;36.90;44.10
20973;DHT22;10645;52.370;13.314;2022-07-19T13:47:19;37.30;43.80
20973;DHT22;10645;52.370;13.314;2022-07-19T13:49:45;37.30;43.30
20973;DHT22;10645;52.370;13.314;2022-07-19T13:52:11;37.50;42.40
20973;DHT22;10645;52.370;13.314;2022-07-19T13:54:37;37.60;42.70
20973;DHT22;10645;52.370;13.314;2022-07-19T13:57:03;37.20;42.50
20973;DHT22;10645;52.370;13.314;2022-07-19T13:59:29;37.20;42.30
20973;DHT22;10645;52.370;13.314;2022-07-19T14:01:57;37.40;43.20
20973;DHT22;10645;52.370;13.314;2022-07-19T14:04:23;37.70;45.00
20973;DHT22;10645;52.370;13.314;2022-07-19T14:06:50;37.90;43.30
20973;DHT22;10645;52.370;13.314;2022-07-19T14:09:16;37.50;44.00
20973;DHT22;10645;52.370;13.314;2022-07-19T14:11:43;37.50;42.40
20973;DHT22;10645;52.370;13.314;2022-07-19T14:14:11;37.50;44.30
20973;DHT22;10645;52.370;13.314;2022-07-19T14:16:37;37.30;41.20
20973;DHT22;10645;52.370;13.314;2022-07-19T14:19:03;37.30;44.00
20973;DHT22;10645;52.370;13.314;2022-07-19T14:21:29;37.00;42.40
20973;DHT22;10645;52.370;13.314;2022-07-19T14:24:00;36.80;42.80
20973;DHT22;10645;52.370;13.314;2022-07-19T14:26:26;36.80;41.80
20973;DHT22;10645;52.370;13.314;2022-07-19T14:28:52;36.80;41.00
20973;DHT22;10645;52.370;13.314;2022-07-19T14:31:18;36.60;41.80
20973;DHT22;10645;52.370;13.314;2022-07-19T14:33:44;36.80;42.80
20973;DHT22;10645;52.370;13.314;2022-07-19T14:36:10;36.70;42.20
20973;DHT22;10645;52.370;13.314;2022-07-19T14:38:36;36.80;43.10
20973;DHT22;10645;52.370;13.314;2022-07-19T14:41:02;36.60;42.10
20973;DHT22;10645;52.370;13.314;2022-07-19T14:43:29;36.60;42.40
20973;DHT22;10645;52.370;13.314;2022-07-19T14:45:55;36.80;41.80
20973;DHT22;10645;52.370;13.314;2022-07-19T14:48:21;36.80;42.30
20973;DHT22;10645;52.370;13.314;2022-07-19T14:50:47;37.00;42.50
20973;DHT22;10645;52.370;13.314;2022-07-19T14:53:13;36.90;40.40
20973;DHT22;10645;52.370;13.314;2022-07-19T14:55:39;36.80;41.40
20973;DHT22;10645;52.370;13.314;2022-07-19T14:58:05;36.90;41.90
20973;DHT22;10645;52.370;13.314;2022-07-19T15:00:31;36.90;41.40
20973;DHT22;10645;52.370;13.314;2022-07-19T15:02:57;37.40;41.80
20973;DHT22;10645;52.370;13.314;2022-07-19T15:05:23;37.70;40.70
20973;DHT22;10645;52.370;13.314;2022-07-19T15:07:49;37.90;41.10
20973;DHT22;10645;52.370;13.314;2022-07-19T15:10:16;37.80;41.30
20973;DHT22;10645;52.370;13.314;2022-07-19T15:12:42;38.10;40.30
20973;DHT22;10645;52.370;13.314;2022-07-19T15:15:08;38.40;39.90
20973;DHT22;10645;52.370;13.314;2022-07-19T15:17:36;38.50;39.10
20973;DHT22;10645;52.370;13.314;2022-07-19T15:20:03;38.70;39.50
20973;DHT22;10645;52.370;13.314;2022-07-19T15:22:29;39.20;38.90
20973;DHT22;10645;52.370;13.314;2022-07-19T15:24:55;40.20;38.60
20973;DHT22;10645;52.370;13.314;2022-07-19T15:27:21;40.10;37.40
20973;DHT22;10645;52.370;13.314;2022-07-19T15:29:47;40.00;36.60
20973;DHT22;10645;52.370;13.314;2022-07-19T15:32:13;39.90;36.30
20973;DHT22;10645;52.370;13.314;2022-07-19T15:34:40;39.50;36.40
20973;DHT22;10645;52.370;13.314;2022-07-19T15:37:06;39.80;37.70
20973;DHT22;10645;52.370;13.314;2022-07-19T15:39:32;40.10;36.90
20973;DHT22;10645;52.370;13.314;2022-07-19T15:41:59;40.60;36.70